sensor_id;sensor_type;location;lat;lon;timestamp;P1;durP1;ratioP1;P2;durP2;ratioP2
18102;SDS011;9178;51.120;6.192;2023-03-11T00:00:07;8.60;;;1.70;;
18102;SDS011;9178;51.120;6.192;2023-03-11T00:02:41;5.27;;;1.77;;
18102;SDS011;9178;51.120;6.192;2023-03-11T00:05:08;3.37;;;1.50;;
18102;SDS011;9178;51.120;6.192;2023-03-11T00:07:39;7.80;;;1.40;;
18102;SDS011;9178;51.120;6.192;2023-03-11T00:10:09;5.73;;;1.83;;
18102;SDS011;9178;51.120;6.192;2023-03-11T00:12:40;4.30;;;1.43;;
18102;SDS011;9178;51.120;6.192;2023-03-11T00:15:09;3.40;;;1.40;;
18102;SDS011;9178;51.120;6.192;2023-03-11T00:17:36;5.30;;;1.67;;
18102;SDS011;9178;51.120;6.192;2023-03-11T00:20:07;6.27;;;1.70;;
18102;SDS011;9178;51.120;6.192;2023-03-11T00:22:41;8.70;;;2.00;;
18102;SDS011;9178;51.120;6.192;2023-03-11T00:25:09;6.63;;;1.50;;
18102;SDS011;9178;51.120;6.192;2023-03-11T00:27:39;6.40;;;1.80;;
18102;SDS011;9178;51.120;6.192;2023-03-11T00:30:06;4.20;;;1.43;;
18102;SDS011;9178;51.120;6.192;2023-03-11T00:32:36;10.20;;;1.67;;
18102;SDS011;9178;51.120;6.192;2023-03-11T00:35:03;7.97;;;1.70;;
18102;SDS011;9178;51.120;6.192;2023-03-11T00:37:31;6.90;;;1.60;;
18102;SDS011;9178;51.120;6.192;2023-03-11T00:39:58;3.77;;;1.40;;
18102;SDS011;9178;51.120;6.192;2023-03-11T00:42:25;8.73;;;1.70;;
18102;SDS011;9178;51.120;6.192;2023-03-11T00:44:53;4.93;;;1.17;;
18102;SDS011;9178;51.120;6.192;2023-03-11T00:47:21;4.83;;;1.30;;
18102;SDS011;9178;51.120;6.192;2023-03-11T00:49:48;4.10;;;1.47;;
18102;SDS011;9178;51.120;6.192;2023-03-11T00:52:15;6.50;;;1.30;;
18102;SDS011;9178;51.120;6.192;2023-03-11T00:54:42;5.50;;;1.50;;
18102;SDS011;9178;51.120;6.192;2023-03-11T00:57:10;4.63;;;1.40;;
18102;SDS011;9178;51.120;6.192;2023-03-11T00:59:37;5.60;;;1.70;;
18102;SDS011;9178;51.120;6.192;2023-03-11T01:02:04;4.50;;;1.23;;
18102;SDS011;9178;51.120;6.192;2023-03-11T01:07:00;6.90;;;1.30;;
18102;SDS011;9178;51.120;6.192;2023-03-11T01:09:27;4.37;;;1.30;;
18102;SDS011;9178;51.120;6.192;2023-03-11T01:11:54;9.13;;;1.20;;
18102;SDS011;9178;51.120;6.192;2023-03-11T01:14:21;3.37;;;1.10;;
18102;SDS011;9178;51.120;6.192;2023-03-11T01:16:48;5.67;;;1.30;;
18102;SDS011;9178;51.120;6.192;2023-03-11T01:19:15;6.87;;;1.30;;
18102;SDS011;9178;51.120;6.192;2023-03-11T01:21:46;4.37;;;1.50;;
18102;SDS011;9178;51.120;6.192;2023-03-11T01:24:13;5.83;;;1.33;;
18102;SDS011;9178;51.120;6.192;2023-03-11T01:26:39;8.07;;;1.60;;
18102;SDS011;9178;51.120;6.192;2023-03-11T01:29:07;10.23;;;1.20;;
18102;SDS011;9178;51.120;6.192;2023-03-11T01:31:34;2.40;;;1.30;;
18102;SDS011;9178;51.120;6.192;2023-03-11T01:34:00;4.73;;;1.27;;
18102;SDS011;9178;51.120;6.192;2023-03-11T01:36:27;5.40;;;1.50;;
18102;SDS011;9178;51.120;6.192;2023-03-11T01:38:56;7.27;;;1.60;;
18102;SDS011;9178;51.120;6.192;2023-03-11T01:41:23;7.23;;;1.53;;
18102;SDS011;9178;51.120;6.192;2023-03-11T01:43:51;6.13;;;1.20;;
18102;SDS011;9178;51.120;6.192;2023-03-11T01:46:20;7.93;;;1.37;;
18102;SDS011;9178;51.120;6.192;2023-03-11T01:48:50;1.80;;;1.13;;
18102;SDS011;9178;51.120;6.192;2023-03-11T01:51:23;4.93;;;1.50;;
18102;SDS011;9178;51.120;6.192;2023-03-11T01:53:52;6.37;;;1.60;;
18102;SDS011;9178;51.120;6.192;2023-03-11T01:56:22;6.17;;;1.50;;
18102;SDS011;9178;51.120;6.192;2023-03-11T01:58:50;5.67;;;1.40;;
18102;SDS011;9178;51.120;6.192;2023-03-11T02:01:19;7.37;;;1.53;;
18102;SDS011;9178;51.120;6.192;2023-03-11T02:03:47;4.87;;;1.63;;
18102;SDS011;9178;51.120;6.192;2023-03-11T02:06:15;5.50;;;1.33;;
18102;SDS011;9178;51.120;6.192;2023-03-11T02:08:44;6.03;;;1.90;;
18102;SDS011;9178;51.120;6.192;2023-03-11T02:11:14;6.43;;;1.93;;
18102;SDS011;9178;51.120;6.192;2023-03-11T02:13:43;5.47;;;1.63;;
18102;SDS011;9178;51.120;6.192;2023-03-11T02:16:11;6.23;;;1.40;;
18102;SDS011;9178;51.120;6.192;2023-03-11T02:18:39;9.23;;;2.03;;
18102;SDS011;9178;51.120;6.192;2023-03-11T02:21:12;2.77;;;1.27;;
18102;SDS011;9178;51.120;6.192;2023-03-11T02:23:49;3.00;;;1.27;;
18102;SDS011;9178;51.120;6.192;2023-03-11T02:26:22;5.53;;;1.40;;
18102;SDS011;9178;51.120;6.192;2023-03-11T02:28:56;5.17;;;1.67;;
18102;SDS011;9178;51.120;6.192;2023-03-11T02:31:23;6.67;;;1.47;;
18102;SDS011;9178;51.120;6.192;2023-03-11T02:33:51;6.07;;;1.30;;
18102;SDS011;9178;51.120;6.192;2023-03-11T02:36:29;5.73;;;1.27;;
18102;SDS011;9178;51.120;6.192;2023-03-11T02:39:00;9.83;;;2.03;;
18102;SDS011;9178;51.120;6.192;2023-03-11T02:41:28;7.13;;;1.40;;
18102;SDS011;9178;51.120;6.192;2023-03-11T02:43:58;8.87;;;2.07;;
18102;SDS011;9178;51.120;6.192;2023-03-11T02:46:25;4.87;;;1.10;;
18102;SDS011;9178;51.120;6.192;2023-03-11T02:48:52;9.37;;;1.50;;
18102;SDS011;9178;51.120;6.192;2023-03-11T02:51:21;11.20;;;1.60;;
18102;SDS011;9178;51.120;6.192;2023-03-11T02:53:49;7.80;;;1.50;;
18102;SDS011;9178;51.120;6.192;2023-03-11T02:56:18;7.33;;;1.50;;
18102;SDS011;9178;51.120;6.192;2023-03-11T02:58:45;5.00;;;1.80;;
18102;SDS011;9178;51.120;6.192;2023-03-11T03:01:13;9.07;;;1.33;;
18102;SDS011;9178;51.120;6.192;2023-03-11T03:03:40;9.57;;;1.60;;
18102;SDS011;9178;51.120;6.192;2023-03-11T03:06:07;4.17;;;1.27;;
18102;SDS011;9178;51.120;6.192;2023-03-11T03:08:35;2.47;;;1.10;;
18102;SDS011;9178;51.120;6.192;2023-03-11T03:11:02;5.77;;;1.30;;
18102;SDS011;9178;51.120;6.192;2023-03-11T03:13:29;6.17;;;1.30;;
18102;SDS011;9178;51.120;6.192;2023-03-11T03:15:56;6.17;;;1.33;;
18102;SDS011;9178;51.120;6.192;2023-03-11T03:18:25;5.20;;;1.50;;
18102;SDS011;9178;51.120;6.192;2023-03-11T03:20:52;8.80;;;1.60;;
18102;SDS011;9178;51.120;6.192;2023-03-11T03:23:19;4.30;;;1.50;;
18102;SDS011;9178;51.120;6.192;2023-03-11T03:25:46;7.53;;;1.67;;
18102;SDS011;9178;51.120;6.192;2023-03-11T03:28:13;7.17;;;1.70;;
18102;SDS011;9178;51.120;6.192;2023-03-11T03:30:40;5.83;;;1.70;;
18102;SDS011;9178;51.120;6.192;2023-03-11T03:33:08;5.77;;;1.47;;
18102;SDS011;9178;51.120;6.192;2023-03-11T03:35:38;5.40;;;1.67;;
18102;SDS011;9178;51.120;6.192;2023-03-11T03:38:06;4.57;;;1.43;;
18102;SDS011;9178;51.120;6.192;2023-03-11T03:40:33;5.47;;;1.23;;
18102;SDS011;9178;51.120;6.192;2023-03-11T03:43:00;9.10;;;1.63;;
18102;SDS011;9178;51.120;6.192;2023-03-11T03:45:27;4.07;;;1.20;;
18102;SDS011;9178;51.120;6.192;2023-03-11T03:47:54;3.93;;;1.70;;
18102;SDS011;9178;51.120;6.192;2023-03-11T03:50:21;6.57;;;1.67;;
18102;SDS011;9178;51.120;6.192;2023-03-11T03:52:49;6.50;;;1.60;;
18102;SDS011;9178;51.120;6.192;2023-03-11T03:55:16;8.37;;;1.80;;
18102;SDS011;9178;51.120;6.192;2023-03-11T03:57:43;6.17;;;1.60;;
18102;SDS011;9178;51.120;6.192;2023-03-11T04:00:10;11.37;;;1.70;;
18102;SDS011;9178;51.120;6.192;2023-03-11T04:02:37;6.60;;;1.73;;
18102;SDS011;9178;51.120;6.192;2023-03-11T04:05:05;4.57;;;2.13;;
18102;SDS011;9178;51.120;6.192;2023-03-11T04:07:32;8.17;;;1.63;;
18102;SDS011;9178;51.120;6.192;2023-03-11T04:10:01;7.07;;;1.93;;
18102;SDS011;9178;51.120;6.192;2023-03-11T04:12:29;5.90;;;1.70;;
18102;SDS011;9178;51.120;6.192;2023-03-11T04:14:55;7.67;;;2.00;;
18102;SDS011;9178;51.120;6.192;2023-03-11T04:17:22;9.73;;;2.20;;
18102;SDS011;9178;51.120;6.192;2023-03-11T04:19:49;5.03;;;1.77;;
18102;SDS011;9178;51.120;6.192;2023-03-11T04:22:16;2.27;;;1.60;;
18102;SDS011;9178;51.120;6.192;2023-03-11T04:24:43;6.03;;;1.67;;
18102;SDS011;9178;51.120;6.192;2023-03-11T04:27:14;5.03;;;1.87;;
18102;SDS011;9178;51.120;6.192;2023-03-11T04:29:41;14.43;;;1.90;;
18102;SDS011;9178;51.120;6.192;2023-03-11T04:32:08;11.53;;;2.27;;
18102;SDS011;9178;51.120;6.192;2023-03-11T04:34:35;4.47;;;1.80;;
18102;SDS011;9178;51.120;6.192;2023-03-11T04:37:02;6.63;;;1.93;;
18102;SDS011;9178;51.120;6.192;2023-03-11T04:39:29;5.87;;;1.77;;
18102;SDS011;9178;51.120;6.192;2023-03-11T04:41:56;5.83;;;2.13;;
18102;SDS011;9178;51.120;6.192;2023-03-11T04:44:24;7.03;;;1.90;;
18102;SDS011;9178;51.120;6.192;2023-03-11T04:46:51;8.73;;;2.17;;
18102;SDS011;9178;51.120;6.192;2023-03-11T04:49:18;12.13;;;2.10;;
18102;SDS011;9178;51.120;6.192;2023-03-11T04:51:45;6.73;;;2.27;;
18102;SDS011;9178;51.120;6.192;2023-03-11T04:54:12;3.67;;;1.73;;
18102;SDS011;9178;51.120;6.192;2023-03-11T04:56:39;6.47;;;2.00;;
18102;SDS011;9178;51.120;6.192;2023-03-11T04:59:06;9.90;;;2.27;;
18102;SDS011;9178;51.120;6.192;2023-03-11T05:01:34;9.17;;;2.00;;
18102;SDS011;9178;51.120;6.192;2023-03-11T05:04:01;4.53;;;2.13;;
18102;SDS011;9178;51.120;6.192;2023-03-11T05:06:29;8.70;;;2.10;;
18102;SDS011;9178;51.120;6.192;2023-03-11T05:08:56;6.33;;;2.10;;
18102;SDS011;9178;51.120;6.192;2023-03-11T05:11:23;10.33;;;2.40;;
18102;SDS011;9178;51.120;6.192;2023-03-11T05:13:50;4.43;;;2.00;;
18102;SDS011;9178;51.120;6.192;2023-03-11T05:16:17;12.33;;;2.20;;
18102;SDS011;9178;51.120;6.192;2023-03-11T05:18:45;10.87;;;1.90;;
18102;SDS011;9178;51.120;6.192;2023-03-11T05:21:12;6.43;;;2.30;;
18102;SDS011;9178;51.120;6.192;2023-03-11T05:23:39;9.87;;;2.23;;
18102;SDS011;9178;51.120;6.192;2023-03-11T05:26:06;8.57;;;2.10;;
18102;SDS011;9178;51.120;6.192;2023-03-11T05:28:33;7.20;;;2.30;;
18102;SDS011;9178;51.120;6.192;2023-03-11T05:31:00;8.87;;;2.67;;
18102;SDS011;9178;51.120;6.192;2023-03-11T05:33:27;11.40;;;2.80;;
18102;SDS011;9178;51.120;6.192;2023-03-11T05:36:03;8.27;;;2.07;;
18102;SDS011;9178;51.120;6.192;2023-03-11T05:38:32;11.67;;;2.30;;
18102;SDS011;9178;51.120;6.192;2023-03-11T05:40:59;11.70;;;2.70;;
18102;SDS011;9178;51.120;6.192;2023-03-11T05:43:26;9.17;;;2.80;;
18102;SDS011;9178;51.120;6.192;2023-03-11T05:45:53;8.07;;;2.47;;
18102;SDS011;9178;51.120;6.192;2023-03-11T05:48:20;10.70;;;2.53;;
18102;SDS011;9178;51.120;6.192;2023-03-11T05:50:47;9.87;;;2.47;;
18102;SDS011;9178;51.120;6.192;2023-03-11T05:53:15;7.30;;;3.07;;
18102;SDS011;9178;51.120;6.192;2023-03-11T05:55:42;8.43;;;2.57;;
18102;SDS011;9178;51.120;6.192;2023-03-11T05:58:08;9.37;;;2.73;;
18102;SDS011;9178;51.120;6.192;2023-03-11T06:00:35;8.23;;;2.53;;
18102;SDS011;9178;51.120;6.192;2023-03-11T06:03:02;12.67;;;2.47;;
18102;SDS011;9178;51.120;6.192;2023-03-11T06:05:29;8.50;;;2.27;;
18102;SDS011;9178;51.120;6.192;2023-03-11T06:07:56;4.37;;;2.50;;
18102;SDS011;9178;51.120;6.192;2023-03-11T06:10:24;13.73;;;3.20;;
18102;SDS011;9178;51.120;6.192;2023-03-11T06:12:51;8.83;;;2.77;;
18102;SDS011;9178;51.120;6.192;2023-03-11T06:15:18;8.90;;;2.90;;
18102;SDS011;9178;51.120;6.192;2023-03-11T06:17:45;8.87;;;2.57;;
18102;SDS011;9178;51.120;6.192;2023-03-11T06:20:12;7.97;;;2.83;;
18102;SDS011;9178;51.120;6.192;2023-03-11T06:22:38;7.07;;;2.70;;
18102;SDS011;9178;51.120;6.192;2023-03-11T06:25:06;7.10;;;3.00;;
18102;SDS011;9178;51.120;6.192;2023-03-11T06:27:34;9.43;;;2.87;;
18102;SDS011;9178;51.120;6.192;2023-03-11T06:30:01;8.40;;;2.93;;
18102;SDS011;9178;51.120;6.192;2023-03-11T06:32:31;8.47;;;2.80;;
18102;SDS011;9178;51.120;6.192;2023-03-11T06:35:01;10.80;;;2.70;;
18102;SDS011;9178;51.120;6.192;2023-03-11T06:37:28;5.87;;;3.27;;
18102;SDS011;9178;51.120;6.192;2023-03-11T06:39:55;6.10;;;2.77;;
18102;SDS011;9178;51.120;6.192;2023-03-11T06:42:22;9.30;;;2.97;;
18102;SDS011;9178;51.120;6.192;2023-03-11T06:44:50;7.27;;;2.90;;
18102;SDS011;9178;51.120;6.192;2023-03-11T06:47:17;12.13;;;2.67;;
18102;SDS011;9178;51.120;6.192;2023-03-11T06:49:44;12.33;;;2.77;;
18102;SDS011;9178;51.120;6.192;2023-03-11T06:52:10;9.03;;;3.40;;
18102;SDS011;9178;51.120;6.192;2023-03-11T06:54:37;7.33;;;3.37;;
18102;SDS011;9178;51.120;6.192;2023-03-11T06:57:05;6.33;;;3.00;;
18102;SDS011;9178;51.120;6.192;2023-03-11T06:59:32;11.83;;;3.17;;
18102;SDS011;9178;51.120;6.192;2023-03-11T07:02:00;12.07;;;3.13;;
18102;SDS011;9178;51.120;6.192;2023-03-11T07:04:28;7.67;;;2.90;;
18102;SDS011;9178;51.120;6.192;2023-03-11T07:06:54;14.10;;;3.20;;
18102;SDS011;9178;51.120;6.192;2023-03-11T07:09:21;8.43;;;3.50;;
18102;SDS011;9178;51.120;6.192;2023-03-11T07:11:49;8.40;;;3.17;;
18102;SDS011;9178;51.120;6.192;2023-03-11T07:14:16;7.73;;;2.80;;
18102;SDS011;9178;51.120;6.192;2023-03-11T07:16:43;12.03;;;3.20;;
18102;SDS011;9178;51.120;6.192;2023-03-11T07:19:11;11.60;;;3.60;;
18102;SDS011;9178;51.120;6.192;2023-03-11T07:21:39;8.87;;;3.30;;
18102;SDS011;9178;51.120;6.192;2023-03-11T07:24:06;10.63;;;3.53;;
18102;SDS011;9178;51.120;6.192;2023-03-11T07:26:34;17.00;;;4.43;;
18102;SDS011;9178;51.120;6.192;2023-03-11T07:29:01;10.70;;;3.17;;
18102;SDS011;9178;51.120;6.192;2023-03-11T07:31:29;8.37;;;3.43;;
18102;SDS011;9178;51.120;6.192;2023-03-11T07:33:57;11.83;;;3.10;;
18102;SDS011;9178;51.120;6.192;2023-03-11T07:36:27;5.43;;;3.00;;
18102;SDS011;9178;51.120;6.192;2023-03-11T07:38:55;7.40;;;2.53;;
18102;SDS011;9178;51.120;6.192;2023-03-11T07:41:24;7.17;;;2.30;;
18102;SDS011;9178;51.120;6.192;2023-03-11T07:43:52;9.73;;;2.13;;
18102;SDS011;9178;51.120;6.192;2023-03-11T07:46:19;10.47;;;3.67;;
18102;SDS011;9178;51.120;6.192;2023-03-11T07:48:47;4.73;;;2.23;;
18102;SDS011;9178;51.120;6.192;2023-03-11T07:51:15;6.07;;;2.83;;
18102;SDS011;9178;51.120;6.192;2023-03-11T07:53:45;6.00;;;2.70;;
18102;SDS011;9178;51.120;6.192;2023-03-11T07:56:13;8.90;;;2.50;;
18102;SDS011;9178;51.120;6.192;2023-03-11T07:58:41;4.10;;;2.30;;
18102;SDS011;9178;51.120;6.192;2023-03-11T08:01:09;5.30;;;2.17;;
18102;SDS011;9178;51.120;6.192;2023-03-11T08:03:37;5.97;;;2.20;;
18102;SDS011;9178;51.120;6.192;2023-03-11T08:06:10;4.80;;;2.63;;
18102;SDS011;9178;51.120;6.192;2023-03-11T08:08:38;5.43;;;2.37;;
18102;SDS011;9178;51.120;6.192;2023-03-11T08:11:06;5.73;;;2.20;;
18102;SDS011;9178;51.120;6.192;2023-03-11T08:13:33;6.47;;;2.30;;
18102;SDS011;9178;51.120;6.192;2023-03-11T08:16:01;5.97;;;2.50;;
18102;SDS011;9178;51.120;6.192;2023-03-11T08:18:28;3.60;;;2.37;;
18102;SDS011;9178;51.120;6.192;2023-03-11T08:20:56;5.23;;;2.40;;
18102;SDS011;9178;51.120;6.192;2023-03-11T08:23:23;5.47;;;2.30;;
18102;SDS011;9178;51.120;6.192;2023-03-11T08:25:50;7.60;;;2.77;;
18102;SDS011;9178;51.120;6.192;2023-03-11T08:28:18;4.70;;;2.37;;
18102;SDS011;9178;51.120;6.192;2023-03-11T08:30:45;8.67;;;2.30;;
18102;SDS011;9178;51.120;6.192;2023-03-11T08:33:12;5.20;;;2.20;;
18102;SDS011;9178;51.120;6.192;2023-03-11T08:35:38;7.73;;;2.17;;
18102;SDS011;9178;51.120;6.192;2023-03-11T08:38:05;5.70;;;1.87;;
18102;SDS011;9178;51.120;6.192;2023-03-11T08:40:32;5.03;;;1.87;;
18102;SDS011;9178;51.120;6.192;2023-03-11T08:42:59;3.73;;;1.73;;
18102;SDS011;9178;51.120;6.192;2023-03-11T08:45:27;6.10;;;2.13;;
18102;SDS011;9178;51.120;6.192;2023-03-11T08:47:54;4.13;;;1.90;;
18102;SDS011;9178;51.120;6.192;2023-03-11T08:50:21;5.23;;;2.07;;
18102;SDS011;9178;51.120;6.192;2023-03-11T08:52:48;5.03;;;1.80;;
18102;SDS011;9178;51.120;6.192;2023-03-11T08:55:15;8.13;;;1.80;;
18102;SDS011;9178;51.120;6.192;2023-03-11T08:57:49;3.87;;;1.60;;
18102;SDS011;9178;51.120;6.192;2023-03-11T09:00:16;5.70;;;2.20;;
18102;SDS011;9178;51.120;6.192;2023-03-11T09:02:45;2.87;;;1.77;;
18102;SDS011;9178;51.120;6.192;2023-03-11T09:05:12;3.00;;;1.50;;
18102;SDS011;9178;51.120;6.192;2023-03-11T09:07:40;4.40;;;1.30;;
18102;SDS011;9178;51.120;6.192;2023-03-11T09:10:07;3.80;;;1.60;;
18102;SDS011;9178;51.120;6.192;2023-03-11T09:12:36;5.43;;;1.70;;
18102;SDS011;9178;51.120;6.192;2023-03-11T09:15:03;5.07;;;1.60;;
18102;SDS011;9178;51.120;6.192;2023-03-11T09:17:31;5.43;;;1.50;;
18102;SDS011;9178;51.120;6.192;2023-03-11T09:19:59;4.80;;;1.30;;
18102;SDS011;9178;51.120;6.192;2023-03-11T09:22:26;2.33;;;1.23;;
18102;SDS011;9178;51.120;6.192;2023-03-11T09:24:53;3.67;;;1.20;;
18102;SDS011;9178;51.120;6.192;2023-03-11T09:27:20;8.50;;;1.40;;
18102;SDS011;9178;51.120;6.192;2023-03-11T09:29:47;4.57;;;1.53;;
18102;SDS011;9178;51.120;6.192;2023-03-11T09:32:14;3.23;;;1.60;;
18102;SDS011;9178;51.120;6.192;2023-03-11T09:34:41;3.20;;;1.43;;
18102;SDS011;9178;51.120;6.192;2023-03-11T09:37:09;5.73;;;1.70;;
18102;SDS011;9178;51.120;6.192;2023-03-11T09:39:39;3.37;;;1.60;;
18102;SDS011;9178;51.120;6.192;2023-03-11T09:42:10;5.83;;;1.73;;
18102;SDS011;9178;51.120;6.192;2023-03-11T09:44:46;3.60;;;1.40;;
18102;SDS011;9178;51.120;6.192;2023-03-11T09:47:36;4.53;;;1.37;;
18102;SDS011;9178;51.120;6.192;2023-03-11T09:50:12;1.60;;;1.00;;
18102;SDS011;9178;51.120;6.192;2023-03-11T09:52:45;4.53;;;1.00;;
18102;SDS011;9178;51.120;6.192;2023-03-11T09:55:20;0.70;;;0.70;;
18102;SDS011;9178;51.120;6.192;2023-03-11T09:57:55;4.60;;;0.80;;
18102;SDS011;9178;51.120;6.192;2023-03-11T10:00:27;4.13;;;0.80;;
18102;SDS011;9178;51.120;6.192;2023-03-11T10:02:54;3.80;;;1.10;;
18102;SDS011;9178;51.120;6.192;2023-03-11T10:05:22;5.80;;;1.10;;
18102;SDS011;9178;51.120;6.192;2023-03-11T10:07:54;2.70;;;0.90;;
18102;SDS011;9178;51.120;6.192;2023-03-11T10:10:26;4.70;;;1.30;;
18102;SDS011;9178;51.120;6.192;2023-03-11T10:12:58;3.10;;;0.80;;
18102;SDS011;9178;51.120;6.192;2023-03-11T10:15:37;4.83;;;1.00;;
18102;SDS011;9178;51.120;6.192;2023-03-11T10:18:24;2.80;;;1.07;;
18102;SDS011;9178;51.120;6.192;2023-03-11T10:21:03;1.53;;;0.70;;
18102;SDS011;9178;51.120;6.192;2023-03-11T10:23:40;1.43;;;0.70;;
18102;SDS011;9178;51.120;6.192;2023-03-11T10:26:21;4.10;;;0.70;;
18102;SDS011;9178;51.120;6.192;2023-03-11T10:28:55;3.60;;;0.63;;
18102;SDS011;9178;51.120;6.192;2023-03-11T10:31:27;6.03;;;1.40;;
18102;SDS011;9178;51.120;6.192;2023-03-11T10:33:58;5.40;;;0.70;;
18102;SDS011;9178;51.120;6.192;2023-03-11T10:36:28;2.93;;;0.60;;
18102;SDS011;9178;51.120;6.192;2023-03-11T10:39:04;4.83;;;0.63;;
18102;SDS011;9178;51.120;6.192;2023-03-11T10:41:37;1.27;;;0.50;;
18102;SDS011;9178;51.120;6.192;2023-03-11T10:44:09;1.00;;;0.60;;
18102;SDS011;9178;51.120;6.192;2023-03-11T10:46:39;1.50;;;0.87;;
18102;SDS011;9178;51.120;6.192;2023-03-11T10:49:07;0.97;;;0.50;;
18102;SDS011;9178;51.120;6.192;2023-03-11T10:51:38;2.27;;;0.67;;
18102;SDS011;9178;51.120;6.192;2023-03-11T10:54:08;1.37;;;0.70;;
18102;SDS011;9178;51.120;6.192;2023-03-11T10:56:48;1.80;;;0.57;;
18102;SDS011;9178;51.120;6.192;2023-03-11T10:59:21;3.80;;;0.80;;
18102;SDS011;9178;51.120;6.192;2023-03-11T11:01:54;1.57;;;0.67;;
18102;SDS011;9178;51.120;6.192;2023-03-11T11:04:25;1.90;;;0.60;;
18102;SDS011;9178;51.120;6.192;2023-03-11T11:06:54;2.20;;;0.87;;
18102;SDS011;9178;51.120;6.192;2023-03-11T11:09:22;3.53;;;0.60;;
18102;SDS011;9178;51.120;6.192;2023-03-11T11:12:00;2.53;;;0.77;;
18102;SDS011;9178;51.120;6.192;2023-03-11T11:14:42;1.77;;;0.57;;
18102;SDS011;9178;51.120;6.192;2023-03-11T11:17:16;3.13;;;0.97;;
18102;SDS011;9178;51.120;6.192;2023-03-11T11:19:45;2.73;;;0.90;;
18102;SDS011;9178;51.120;6.192;2023-03-11T11:22:15;1.17;;;0.63;;
18102;SDS011;9178;51.120;6.192;2023-03-11T11:24:46;3.40;;;0.80;;
18102;SDS011;9178;51.120;6.192;2023-03-11T11:27:16;1.80;;;0.50;;
18102;SDS011;9178;51.120;6.192;2023-03-11T11:29:45;4.97;;;0.87;;
18102;SDS011;9178;51.120;6.192;2023-03-11T11:32:23;6.60;;;0.70;;
18102;SDS011;9178;51.120;6.192;2023-03-11T11:34:59;3.00;;;0.80;;
18102;SDS011;9178;51.120;6.192;2023-03-11T11:37:28;5.00;;;1.33;;
18102;SDS011;9178;51.120;6.192;2023-03-11T11:39:59;6.17;;;0.87;;
18102;SDS011;9178;51.120;6.192;2023-03-11T11:42:34;2.83;;;0.67;;
18102;SDS011;9178;51.120;6.192;2023-03-11T11:45:03;3.40;;;0.70;;
18102;SDS011;9178;51.120;6.192;2023-03-11T11:47:38;2.80;;;0.87;;
18102;SDS011;9178;51.120;6.192;2023-03-11T11:50:12;2.40;;;0.87;;
18102;SDS011;9178;51.120;6.192;2023-03-11T11:52:43;2.73;;;1.13;;
18102;SDS011;9178;51.120;6.192;2023-03-11T11:55:18;2.90;;;0.80;;
18102;SDS011;9178;51.120;6.192;2023-03-11T11:57:47;4.33;;;0.90;;
18102;SDS011;9178;51.120;6.192;2023-03-11T12:00:16;1.33;;;0.60;;
18102;SDS011;9178;51.120;6.192;2023-03-11T12:02:50;2.63;;;0.70;;
18102;SDS011;9178;51.120;6.192;2023-03-11T12:05:31;4.27;;;0.93;;
18102;SDS011;9178;51.120;6.192;2023-03-11T12:08:05;4.43;;;0.70;;
18102;SDS011;9178;51.120;6.192;2023-03-11T12:10:38;2.80;;;0.90;;
18102;SDS011;9178;51.120;6.192;2023-03-11T12:16:22;4.33;;;1.00;;
18102;SDS011;9178;51.120;6.192;2023-03-11T12:18:57;1.97;;;0.83;;
18102;SDS011;9178;51.120;6.192;2023-03-11T12:21:34;2.77;;;1.00;;
18102;SDS011;9178;51.120;6.192;2023-03-11T12:24:30;3.33;;;0.80;;
18102;SDS011;9178;51.120;6.192;2023-03-11T12:27:13;3.30;;;0.80;;
18102;SDS011;9178;51.120;6.192;2023-03-11T12:29:45;3.07;;;1.10;;
18102;SDS011;9178;51.120;6.192;2023-03-11T12:32:17;2.53;;;0.83;;
18102;SDS011;9178;51.120;6.192;2023-03-11T12:34:49;2.40;;;0.80;;
18102;SDS011;9178;51.120;6.192;2023-03-11T12:37:17;2.23;;;0.90;;
18102;SDS011;9178;51.120;6.192;2023-03-11T12:39:48;2.37;;;0.90;;
18102;SDS011;9178;51.120;6.192;2023-03-11T12:42:17;3.83;;;0.80;;
18102;SDS011;9178;51.120;6.192;2023-03-11T12:44:47;3.23;;;1.00;;
18102;SDS011;9178;51.120;6.192;2023-03-11T12:47:18;0.73;;;0.60;;
18102;SDS011;9178;51.120;6.192;2023-03-11T12:49:49;3.80;;;0.80;;
18102;SDS011;9178;51.120;6.192;2023-03-11T12:52:28;3.77;;;1.17;;
18102;SDS011;9178;51.120;6.192;2023-03-11T12:57:54;1.90;;;0.70;;
18102;SDS011;9178;51.120;6.192;2023-03-11T13:00:48;1.73;;;0.77;;
18102;SDS011;9178;51.120;6.192;2023-03-11T13:03:29;1.40;;;0.70;;
18102;SDS011;9178;51.120;6.192;2023-03-11T13:06:21;2.30;;;0.87;;
18102;SDS011;9178;51.120;6.192;2023-03-11T13:09:24;2.17;;;0.70;;
18102;SDS011;9178;51.120;6.192;2023-03-11T13:11:51;4.50;;;1.00;;
18102;SDS011;9178;51.120;6.192;2023-03-11T13:14:22;2.57;;;0.50;;
18102;SDS011;9178;51.120;6.192;2023-03-11T13:16:55;1.00;;;0.57;;
18102;SDS011;9178;51.120;6.192;2023-03-11T13:19:33;3.28;;;1.17;;
18102;SDS011;9178;51.120;6.192;2023-03-11T13:25:27;2.63;;;1.10;;
18102;SDS011;9178;51.120;6.192;2023-03-11T13:31:12;1.13;;;0.70;;
18102;SDS011;9178;51.120;6.192;2023-03-11T13:33:50;1.98;;;0.90;;
18102;SDS011;9178;51.120;6.192;2023-03-11T13:36:35;3.60;;;1.00;;
18102;SDS011;9178;51.120;6.192;2023-03-11T13:42:13;3.60;;;0.93;;
18102;SDS011;9178;51.120;6.192;2023-03-11T13:44:45;3.73;;;1.03;;
18102;SDS011;9178;51.120;6.192;2023-03-11T13:47:15;2.03;;;1.00;;
18102;SDS011;9178;51.120;6.192;2023-03-11T13:49:49;6.00;;;0.93;;
18102;SDS011;9178;51.120;6.192;2023-03-11T13:52:24;1.90;;;1.00;;
18102;SDS011;9178;51.120;6.192;2023-03-11T13:54:55;4.63;;;1.10;;
18102;SDS011;9178;51.120;6.192;2023-03-11T13:57:29;1.20;;;0.60;;
18102;SDS011;9178;51.120;6.192;2023-03-11T13:59:57;3.07;;;0.80;;
18102;SDS011;9178;51.120;6.192;2023-03-11T14:02:41;5.40;;;0.90;;
18102;SDS011;9178;51.120;6.192;2023-03-11T14:05:12;4.90;;;1.30;;
18102;SDS011;9178;51.120;6.192;2023-03-11T14:07:42;1.25;;;0.95;;
18102;SDS011;9178;51.120;6.192;2023-03-11T14:10:16;3.47;;;0.88;;
18102;SDS011;9178;51.120;6.192;2023-03-11T14:12:44;3.25;;;0.80;;
18102;SDS011;9178;51.120;6.192;2023-03-11T14:15:14;1.45;;;0.80;;
18102;SDS011;9178;51.120;6.192;2023-03-11T14:17:45;3.70;;;1.00;;
18102;SDS011;9178;51.120;6.192;2023-03-11T14:20:13;3.97;;;0.75;;
18102;SDS011;9178;51.120;6.192;2023-03-11T14:22:43;3.65;;;0.70;;
18102;SDS011;9178;51.120;6.192;2023-03-11T14:25:15;3.22;;;0.80;;
18102;SDS011;9178;51.120;6.192;2023-03-11T14:27:50;1.02;;;0.50;;
18102;SDS011;9178;51.120;6.192;2023-03-11T14:30:20;3.22;;;0.90;;
18102;SDS011;9178;51.120;6.192;2023-03-11T14:32:58;2.25;;;0.75;;
18102;SDS011;9178;51.120;6.192;2023-03-11T14:35:27;2.72;;;0.63;;
18102;SDS011;9178;51.120;6.192;2023-03-11T14:37:55;1.65;;;0.75;;
18102;SDS011;9178;51.120;6.192;2023-03-11T14:40:24;1.45;;;0.93;;
18102;SDS011;9178;51.120;6.192;2023-03-11T14:42:52;1.70;;;0.75;;
18102;SDS011;9178;51.120;6.192;2023-03-11T14:45:21;3.83;;;0.85;;
18102;SDS011;9178;51.120;6.192;2023-03-11T14:47:50;2.47;;;0.82;;
18102;SDS011;9178;51.120;6.192;2023-03-11T14:50:23;1.58;;;0.63;;
18102;SDS011;9178;51.120;6.192;2023-03-11T14:52:53;2.83;;;1.05;;
18102;SDS011;9178;51.120;6.192;2023-03-11T14:55:25;2.25;;;0.80;;
18102;SDS011;9178;51.120;6.192;2023-03-11T14:57:56;2.80;;;1.00;;
18102;SDS011;9178;51.120;6.192;2023-03-11T15:00:27;3.80;;;1.05;;
18102;SDS011;9178;51.120;6.192;2023-03-11T15:03:01;1.98;;;0.82;;
18102;SDS011;9178;51.120;6.192;2023-03-11T15:05:40;1.47;;;0.70;;
18102;SDS011;9178;51.120;6.192;2023-03-11T15:08:10;3.70;;;1.23;;
18102;SDS011;9178;51.120;6.192;2023-03-11T15:10:51;2.43;;;1.10;;
18102;SDS011;9178;51.120;6.192;2023-03-11T15:13:26;4.67;;;0.80;;
18102;SDS011;9178;51.120;6.192;2023-03-11T15:15:54;2.03;;;0.70;;
18102;SDS011;9178;51.120;6.192;2023-03-11T15:18:23;2.37;;;0.70;;
18102;SDS011;9178;51.120;6.192;2023-03-11T15:21:02;3.63;;;0.67;;
18102;SDS011;9178;51.120;6.192;2023-03-11T15:23:32;4.33;;;0.97;;
18102;SDS011;9178;51.120;6.192;2023-03-11T15:26:00;3.43;;;0.93;;
18102;SDS011;9178;51.120;6.192;2023-03-11T15:28:29;3.67;;;0.60;;
18102;SDS011;9178;51.120;6.192;2023-03-11T15:31:13;1.27;;;0.70;;
18102;SDS011;9178;51.120;6.192;2023-03-11T15:33:41;1.83;;;1.10;;